Ingelmunster, Belgium
Current Conditions -  °F | °C
As of 10:00 AM on Thursday 23 Oct 2014 (Local Time) from LFQQ Reporting Station
Broken Clouds Broken Clouds  
Wind Chill: 11°   Ceiling: 4500
Heat Index: 11°   Visibility: 6mi
Dew Point: 10°   Wind: 5mph
Humidity: 94%   Direction: 200°SSW
Pressure: 30.21"   Gusts: NA
Location:  50.92°N, 3.26°E
Report Text: LFQQ 230800Z 20004KT 9999 BKN045 11/10 Q1023 NOSIG
Loading
Personal Weather Stations






























Interactive Weather Map
Tropical Storm Tracking
New forecast layout! Learn more

10-Day Weather Forecast

Advertisements
Track Severe Weather on mobile